Meath Environmental Platform

Observations for Trim Market St

Time AQI Temp °C Hum % Pres Pa CO μg/m³ H₂S μg/m³ NO μg/m³ NO₂ μg/m³ O₃ μg/m³ SO₂ μg/m³ PM1 μg/m³ PM2.5 μg/m³ PM10 μg/m³
Saturday 22 August 2026
13:25 2 21.1 45 65,145 0.49 0 1.89 32.04 52.41 0 1.43 5.28 7.53
13:24 2 21.1 45 65,139 0.33 0 1.95 13.84 60.36 0 3.56 7.36 9.08
13:23 2 21 45 65,101 0.15 0 1.86 21.62 58.25 0 2.14 5.27 5.98
13:22 2 20.9 45 65,115 0.28 0 1.83 14.34 62.81 0 0.71 4.22 4.43
13:21 2 20.9 45 65,074 0.46 0 1.72 37.58 46.88 0 0.71 4.22 4.43
13:20 2 20.8 45 65,080 0.09 0 1.71 16.26 61.15 0 0.71 3.18 3.5
13:19 2 20.8 45 65,056 0.34 0 1.34 15.64 63.5 0 0.71 4.22 4.43
13:18 2 20.7 45 65,029 1.19 0 1.36 14.95 64.77 0 0.71 3.7 4.43
13:17 2 20.7 45 65,021 0.1 0 1.32 15.5 61.85 0 0 2.65 2.89
13:16 2 20.7 45 65,013 0 0 1.3 11.41 69.26 0 0.71 3.18 4.43
13:14 2 20.6 46 64,973 0.06 0 1.38 11.54 73.59 0 0 3.17 3.66
13:13 2 20.5 46 64,946 0.1 0 1.39 11.8 71.59 0 0 3.17 3.48
13:12 2 20.5 46 64,915 0.19 0 1.35 12.66 64.21 0 0.71 3.69 4.06
13:11 2 20.5 46 64,880 0.04 0 1.64 13.73 67.24 0 0 3.16 3.48
13:09 2 20.5 46 64,900 0 0 1.33 11.04 76.32 0 0.71 3.68 5.98
13:08 2 20.5 46 64,917 0 0 1.31 11.19 66.12 0 1.43 4.2 4.44
13:07 2 20.5 46 64,915 0 0 1.32 9.22 96.74 0 0.71 3.69 4.06
13:06 2 20.5 45 64,939 0 0 1.22 10.17 90.82 0 0 3.69 4.06
13:04 2 20.6 45 64,948 0 0 1.26 8.02 103.45 0 0.71 3.7 4.43
13:03 2 20.6 45 64,950 0 0 1.3 9.84 100.71 0 0 3.18 4.43